»·PEaware :: N2193G KGCN-KLAS

N2193G :: KGCN-KLAS

FLIGHT INFORMATION

Flight Status: Arrived
Operator: Privately registered:
United States
More flights under this callsign
Pilot: Horacio G. (12762)
Aircraft: MOONEY M-20K/M ENCORE BRAVO
(M20T)
More flights by this aircraft type
Origin: KGCN Grand Canyon Natl Park
United States
Destination: KLAS McCarran Intl
United States
More flights between these airports :: More routes between these airports
Route: +PARKS4 PGS KADDY2
File this flight plan on PilotEdge
Remarks: RV GPS 19R, IMC
Altitude:
(Current/Filed)
16,000ft
Speed:
(Current/Filed)
190kts
Departed: 26-Jul-18 03:13 PM
Arrived: 26-Jul-18 04:12 PM
Distance/Time
Traveled:
147nm/0:59
Distance/Time
To Go:
Arrived

Flight Plot

Page will automatically refresh every two minutes.

Flight plan parsing failed; only flown route is shown


Map Options




Map Legend


Flown Route
Filed Route
Departure Airport
Arrival Airport
Navaid (VOR, NDB)
Fix

Horizontal Profiles

Position Reports

Time Latitude Longitude Heading Altitude Ground
Speed
26-Jul-18 15:06 35.957016 -112.139574 34 6602ft 0kts
26-Jul-18 15:07 35.957016 -112.139574 34 6602ft 0kts
26-Jul-18 15:08 35.957016 -112.139574 34 6602ft 0kts
26-Jul-18 15:09 35.957016 -112.139574 34 6602ft 0kts
26-Jul-18 15:10 35.957016 -112.139574 34 6602ft 0kts
26-Jul-18 15:11 35.957319 -112.139321 36 6603ft 9kts
26-Jul-18 15:12 35.960900 -112.136289 335 6612ft 0kts
26-Jul-18 15:13 35.961334 -112.136735 312 6610ft 13kts
26-Jul-18 15:14 35.949795 -112.150474 222 6857ft 120kts
26-Jul-18 15:15 35.930407 -112.181478 275 8326ft 118kts
26-Jul-18 15:16 35.936334 -112.219422 279 9862ft 110kts
26-Jul-18 15:17 35.931536 -112.269717 255 10025ft 180kts
26-Jul-18 15:18 35.915592 -112.330584 254 10032ft 189kts
26-Jul-18 15:19 35.901725 -112.391719 247 10527ft 170kts
26-Jul-18 15:20 35.891182 -112.443569 263 11846ft 153kts
26-Jul-18 15:21 35.878545 -112.493090 250 13205ft 140kts
26-Jul-18 15:22 35.867253 -112.535155 253 14800ft 122kts
26-Jul-18 15:23 35.861284 -112.579239 254 15974ft 133kts
26-Jul-18 15:24 35.845138 -112.633465 251 16048ft 189kts
26-Jul-18 15:25 35.830220 -112.698291 254 16046ft 199kts
26-Jul-18 15:26 35.811238 -112.762849 256 16041ft 200kts
26-Jul-18 15:27 35.794908 -112.828175 251 16036ft 197kts
26-Jul-18 15:28 35.777238 -112.891497 251 15997ft 194kts
26-Jul-18 15:29 35.762228 -112.955269 253 16014ft 190kts
26-Jul-18 15:30 35.748023 -113.018415 256 16006ft 193kts
26-Jul-18 15:31 35.733190 -113.081901 251 16029ft 193kts
26-Jul-18 15:32 35.717801 -113.145218 255 15998ft 194kts
26-Jul-18 15:33 35.704415 -113.209162 254 16004ft 193kts
26-Jul-18 15:34 35.689255 -113.272626 255 16012ft 193kts
26-Jul-18 15:35 35.674035 -113.335727 253 15999ft 195kts
26-Jul-18 15:36 35.659375 -113.399231 258 16011ft 193kts
26-Jul-18 15:37 35.644539 -113.462372 252 15987ft 195kts
26-Jul-18 15:38 35.629308 -113.525864 252 15979ft 195kts
26-Jul-18 15:39 35.629358 -113.591202 278 15981ft 193kts
26-Jul-18 15:40 35.638603 -113.656024 282 16007ft 192kts
26-Jul-18 15:41 35.648619 -113.720407 282 16012ft 192kts
26-Jul-18 15:42 35.657578 -113.785122 280 15995ft 193kts
26-Jul-18 15:43 35.666374 -113.849929 279 16059ft 190kts
26-Jul-18 15:44 35.676291 -113.914216 277 15995ft 195kts
26-Jul-18 15:45 35.685858 -113.978968 282 15982ft 195kts
26-Jul-18 15:46 35.695821 -114.043671 281 15924ft 197kts
26-Jul-18 15:47 35.704591 -114.112789 278 14786ft 221kts
26-Jul-18 15:48 35.714692 -114.189144 279 12689ft 216kts
26-Jul-18 15:49 35.724406 -114.256912 280 12470ft 182kts
26-Jul-18 15:50 35.733857 -114.320863 280 12057ft 190kts
26-Jul-18 15:51 35.743552 -114.383904 295 11951ft 187kts
26-Jul-18 15:52 35.771470 -114.436348 307 11948ft 186kts
26-Jul-18 15:53 35.798852 -114.489156 299 12007ft 183kts
26-Jul-18 15:54 35.832057 -114.533994 339 11864ft 189kts
26-Jul-18 15:55 35.878590 -114.557666 340 12003ft 182kts
26-Jul-18 15:56 35.920234 -114.596635 312 10956ft 197kts
26-Jul-18 15:57 35.957201 -114.648898 310 9100ft 208kts
26-Jul-18 15:58 35.995463 -114.698622 316 7634ft 191kts
26-Jul-18 15:59 36.031442 -114.742648 318 6970ft 181kts
26-Jul-18 16:00 36.067986 -114.784348 316 7019ft 182kts
26-Jul-18 16:01 36.105138 -114.826552 314 7051ft 184kts
26-Jul-18 16:02 36.139628 -114.873689 315 6975ft 184kts
26-Jul-18 16:03 36.174802 -114.919025 315 7023ft 182kts
26-Jul-18 16:04 36.211402 -114.962955 329 6930ft 186kts
26-Jul-18 16:05 36.264731 -114.962843 353 6034ft 190kts
26-Jul-18 16:06 36.271704 -115.001341 222 5068ft 161kts
26-Jul-18 16:07 36.235614 -115.037872 215 5164ft 157kts
26-Jul-18 16:08 36.202824 -115.065920 214 4813ft 140kts
26-Jul-18 16:09 36.171201 -115.094911 219 3917ft 131kts
26-Jul-18 16:10 36.141108 -115.121949 219 3195ft 131kts
26-Jul-18 16:11 36.114681 -115.145149 216 2525ft 104kts
26-Jul-18 16:12 36.091605 -115.161081 205 2114ft 77kts
26-Jul-18 16:13 36.083076 -115.167374 234 2155ft 12kts
26-Jul-18 16:14 36.081702 -115.170122 105 2165ft 0kts

Navigation Log

Ident Type
Flight plan parsing failed, navigation log unavailable